createdAt,value
2023-05-06T00:02:47.148Z,67.64
2023-05-06T00:10:01.003Z,68.09
2023-05-06T00:17:28.990Z,68.13
2023-05-06T00:21:16.043Z,67.97
2023-05-06T00:35:08.620Z,68.78
2023-05-06T00:38:56.095Z,68.64
2023-05-06T00:42:35.995Z,69.04
2023-05-06T00:46:18.026Z,69.38
2023-05-06T00:57:01.236Z,69.10
2023-05-06T01:00:41.039Z,68.82
2023-05-06T01:04:36.919Z,68.81
2023-05-06T01:08:28.269Z,69.35
2023-05-06T01:12:08.386Z,75.70
2023-05-06T01:18:54.456Z,73.50
2023-05-06T01:21:35.077Z,72.35
2023-05-06T01:24:03.226Z,72.14
2023-05-06T01:27:03.522Z,71.35
2023-05-06T01:30:49.101Z,71.72
2023-05-06T01:37:54.994Z,73.67
2023-05-06T01:41:28.992Z,72.77
2023-05-06T01:45:10.136Z,72.17
2023-05-06T01:49:24.066Z,75.24
2023-05-06T01:53:33.496Z,73.06
2023-05-06T02:00:01.034Z,72.48
2023-05-06T02:04:05.436Z,72.27
2023-05-06T02:07:46.116Z,71.92
2023-05-06T02:12:26.978Z,71.68
2023-05-06T02:16:05.318Z,71.22
2023-05-06T02:42:07.187Z,74.39
2023-05-06T02:49:19.108Z,72.18
2023-05-06T02:53:08.943Z,71.71
2023-05-06T02:56:45.793Z,71.48
2023-05-06T03:00:28.235Z,71.87
2023-05-06T03:04:14.428Z,71.47
2023-05-06T03:08:08.436Z,71.94
2023-05-06T03:38:45.066Z,72.76
2023-05-06T03:42:54.460Z,74.96
2023-05-06T03:47:23.154Z,74.24
2023-05-06T03:51:14.134Z,73.71
2023-05-06T03:55:20.925Z,73.40
2023-05-06T03:59:50.181Z,73.27
2023-05-06T04:30:44.624Z,73.97
2023-05-06T04:38:26.236Z,73.35
2023-05-06T04:42:27.952Z,72.75
2023-05-06T04:46:57.231Z,72.63
2023-05-06T04:51:36.090Z,72.82
2023-05-06T04:59:52.802Z,72.76
2023-05-06T05:04:21.505Z,72.06
2023-05-06T05:24:35.795Z,70.33
2023-05-06T05:28:44.804Z,69.76
2023-05-06T05:33:13.985Z,69.63
2023-05-06T05:37:10.364Z,70.48
2023-05-06T05:41:17.586Z,70.67
2023-05-06T05:45:15.285Z,70.08
2023-05-06T05:49:44.391Z,69.63
2023-05-06T05:53:36.965Z,69.60
2023-05-06T06:01:21.903Z,68.89
2023-05-06T06:05:10.606Z,68.57
2023-05-06T06:13:28.569Z,68.44
2023-05-06T06:21:12.967Z,68.37
2023-05-06T06:28:22.606Z,68.23
2023-05-06T06:32:28.499Z,67.63
2023-05-06T06:44:09.668Z,66.90
2023-05-06T06:47:49.352Z,66.73
2023-05-06T06:58:14.015Z,66.06
2023-05-06T07:01:54.586Z,65.76
2023-05-06T07:09:41.558Z,64.06
2023-05-06T07:13:42.361Z,63.06
2023-05-06T07:20:40.084Z,62.06
2023-05-06T07:28:21.200Z,59.98
2023-05-06T07:35:20.447Z,58.09
2023-05-06T07:38:51.380Z,58.29
2023-05-06T07:43:20.780Z,55.63
2023-05-06T07:47:27.722Z,54.43
2023-05-06T07:51:32.700Z,53.93
2023-05-06T07:55:35.262Z,53.25
2023-05-06T07:59:26.974Z,52.94
2023-05-06T08:03:16.815Z,52.08
2023-05-06T08:07:15.367Z,51.07
2023-05-06T08:10:13.963Z,51.08
2023-05-06T08:12:41.984Z,50.50
2023-05-06T08:15:10.722Z,50.11
2023-05-06T08:17:38.988Z,48.48
2023-05-06T08:20:07.427Z,48.20
2023-05-06T08:22:41.403Z,48.09
2023-05-06T08:25:09.973Z,48.31
2023-05-06T08:27:38.181Z,48.03
2023-05-06T08:30:06.774Z,48.14
2023-05-06T08:32:34.638Z,47.52
2023-05-06T08:35:02.539Z,45.83
2023-05-06T08:37:30.793Z,44.50
2023-05-06T08:40:00.012Z,43.82
2023-05-06T08:42:30.592Z,43.53
2023-05-06T08:44:59.887Z,44.21
2023-05-06T08:47:27.774Z,43.88
2023-05-06T08:49:56.335Z,43.91
2023-05-06T08:52:24.508Z,44.19
2023-05-06T08:55:01.037Z,44.01
2023-05-06T08:57:30.756Z,43.41
2023-05-06T08:59:58.998Z,42.38
2023-05-06T09:02:27.700Z,43.10
2023-05-06T09:04:56.577Z,43.32
2023-05-06T09:07:24.615Z,43.03
2023-05-06T09:09:52.923Z,43.28
2023-05-06T09:12:20.812Z,42.55
2023-05-06T09:14:51.878Z,42.30
2023-05-06T09:17:26.908Z,42.61
2023-05-06T09:19:57.196Z,41.95
2023-05-06T09:22:28.459Z,42.09
2023-05-06T09:24:58.856Z,41.07
2023-05-06T09:27:31.305Z,40.59
2023-05-06T09:30:11.538Z,40.99
2023-05-06T09:32:41.035Z,41.02
2023-05-06T09:35:11.821Z,41.00
2023-05-06T09:37:40.056Z,40.56
2023-05-06T09:40:09.601Z,40.74
2023-05-06T09:42:38.515Z,40.23
2023-05-06T09:45:10.128Z,39.52
2023-05-06T09:47:38.805Z,39.20
2023-05-06T09:50:09.175Z,39.42
2023-05-06T09:52:37.619Z,38.45
2023-05-06T09:55:07.153Z,38.32
2023-05-06T09:57:37.095Z,38.45
2023-05-06T10:00:08.131Z,38.30
2023-05-06T10:02:42.130Z,37.74
2023-05-06T10:05:13.749Z,37.59
2023-05-06T10:07:42.806Z,37.21
2023-05-06T10:10:12.157Z,37.26
2023-05-06T10:12:40.323Z,37.52
2023-05-06T10:15:10.608Z,36.83
2023-05-06T10:17:41.832Z,36.88
2023-05-06T10:20:14.666Z,36.47
2023-05-06T10:23:09.652Z,35.88
2023-05-06T10:25:40.385Z,35.54
2023-05-06T10:28:11.273Z,34.66
2023-05-06T10:30:48.510Z,34.26
2023-05-06T10:33:17.111Z,34.24
2023-05-06T10:35:52.869Z,34.33
2023-05-06T10:38:38.768Z,33.12
2023-05-06T10:41:08.959Z,33.85
2023-05-06T10:43:42.886Z,32.39
2023-05-06T10:46:18.960Z,32.16
2023-05-06T10:49:21.087Z,32.32
2023-05-06T10:52:12.076Z,30.58
2023-05-06T10:54:51.082Z,30.57
2023-05-06T10:57:22.478Z,29.61
2023-05-06T10:59:50.408Z,29.94
2023-05-06T11:02:20.277Z,28.98
2023-05-06T11:04:53.321Z,27.97
2023-05-06T11:07:23.810Z,27.34
2023-05-06T11:10:10.569Z,27.05
2023-05-06T11:12:59.135Z,27.33
2023-05-06T11:15:41.344Z,27.40
2023-05-06T11:18:49.049Z,27.42
2023-05-06T11:21:37.849Z,26.62
2023-05-06T11:24:06.832Z,26.46
2023-05-06T11:26:35.092Z,25.57
2023-05-06T11:29:04.941Z,25.44
2023-05-06T11:31:39.429Z,25.18
2023-05-06T11:34:10.026Z,25.06
2023-05-06T11:36:46.604Z,24.82
2023-05-06T11:39:14.752Z,25.08
2023-05-06T11:41:42.790Z,25.29
2023-05-06T11:44:13.144Z,25.17
2023-05-06T11:46:43.864Z,25.06
2023-05-06T11:49:14.455Z,23.92
2023-05-06T11:51:42.279Z,24.34
2023-05-06T11:54:10.915Z,23.66
2023-05-06T11:56:59.188Z,23.46
2023-05-06T11:59:33.755Z,23.21
2023-05-06T12:02:04.584Z,24.30
2023-05-06T12:04:45.477Z,25.47
2023-05-06T12:07:15.389Z,24.93
2023-05-06T12:09:48.938Z,23.85
2023-05-06T12:12:22.209Z,24.16
2023-05-06T12:14:52.984Z,24.48
2023-05-06T12:17:21.214Z,24.59
2023-05-06T12:19:50.298Z,24.25
2023-05-06T12:22:24.545Z,24.57
2023-05-06T12:24:53.718Z,24.53
2023-05-06T12:27:31.299Z,24.85
2023-05-06T12:30:00.514Z,25.03
2023-05-06T12:32:28.502Z,25.06
2023-05-06T12:34:56.563Z,24.62
2023-05-06T12:37:26.971Z,24.58
2023-05-06T12:39:57.813Z,24.34
2023-05-06T12:42:27.716Z,24.47
2023-05-06T12:44:56.338Z,24.40
2023-05-06T12:47:26.133Z,24.54
2023-05-06T12:49:59.218Z,24.43
2023-05-06T12:52:29.731Z,24.81
2023-05-06T12:54:57.828Z,24.50
2023-05-06T12:57:26.358Z,24.38
2023-05-06T12:59:56.145Z,24.08
2023-05-06T13:02:24.245Z,23.70
2023-05-06T13:04:52.229Z,24.30
2023-05-06T13:07:20.439Z,24.05
2023-05-06T13:09:48.810Z,23.68
2023-05-06T13:12:16.983Z,23.97
2023-05-06T13:14:44.828Z,24.07
2023-05-06T13:17:47.039Z,24.27
2023-05-06T13:21:40.579Z,24.64
2023-05-06T13:25:16.306Z,25.43
2023-05-06T13:28:47.090Z,25.61
2023-05-06T13:32:23.508Z,25.35
2023-05-06T13:46:06.557Z,26.35
2023-05-06T13:50:20.422Z,26.84
2023-05-06T14:00:24.034Z,27.36
2023-05-06T14:03:56.458Z,27.96
2023-05-06T14:11:17.972Z,28.66
2023-05-06T14:13:47.070Z,28.54
2023-05-06T14:16:16.637Z,28.78
2023-05-06T14:19:27.243Z,28.85
2023-05-06T14:23:07.996Z,29.10
2023-05-06T14:30:13.538Z,29.21
2023-05-06T14:33:42.061Z,29.48
2023-05-06T14:37:48.702Z,30.38
2023-05-06T14:45:31.387Z,30.79
2023-05-06T14:49:25.958Z,31.18
2023-05-06T14:53:10.111Z,31.59
2023-05-06T14:56:45.349Z,31.82
2023-05-06T15:00:53.523Z,32.24
2023-05-06T15:08:55.015Z,32.84
2023-05-06T15:12:32.736Z,33.23
2023-05-06T15:16:13.807Z,33.34
2023-05-06T15:19:45.078Z,33.40
2023-05-06T15:23:09.239Z,34.02
2023-05-06T15:26:48.308Z,34.21
2023-05-06T15:30:44.904Z,35.04
2023-05-06T15:34:45.729Z,36.31
2023-05-06T15:42:02.003Z,37.65
2023-05-06T15:46:00.547Z,37.50
2023-05-06T15:53:14.977Z,38.57
2023-05-06T15:56:49.404Z,38.58
2023-05-06T16:00:24.034Z,38.93
2023-05-06T16:04:11.198Z,39.34
2023-05-06T16:08:02.410Z,39.87
2023-05-06T16:11:45.796Z,40.22
2023-05-06T16:15:28.872Z,40.30
2023-05-06T16:19:05.305Z,39.98
2023-05-06T16:22:51.982Z,40.06
2023-05-06T16:39:52.451Z,40.83
2023-05-06T16:43:29.361Z,40.83
2023-05-06T16:50:41.650Z,41.55
2023-05-06T16:54:36.386Z,41.29
2023-05-06T16:57:59.127Z,41.07
2023-05-06T17:04:53.028Z,41.07
2023-05-06T17:08:24.173Z,40.75
2023-05-06T17:11:47.976Z,40.58
2023-05-06T17:25:07.429Z,44.91
2023-05-06T17:30:32.137Z,45.07
2023-05-06T17:32:55.586Z,45.08
2023-05-06T17:36:52.130Z,46.05
2023-05-06T17:44:10.558Z,49.16
2023-05-06T17:47:57.077Z,50.55
2023-05-06T17:51:35.444Z,49.74
2023-05-06T17:55:17.730Z,52.13
2023-05-06T17:58:56.832Z,51.43
2023-05-06T18:02:33.537Z,51.45
2023-05-06T18:09:25.695Z,54.40
2023-05-06T18:11:54.246Z,55.24
2023-05-06T18:14:51.021Z,55.30
2023-05-06T18:18:50.875Z,54.55
2023-05-06T18:22:46.394Z,54.32
2023-05-06T18:33:04.770Z,53.14
2023-05-06T18:36:03.257Z,53.22
2023-05-06T18:39:04.962Z,53.58
2023-05-06T18:42:53.371Z,53.26
2023-05-06T18:45:43.494Z,52.93
2023-05-06T18:48:53.106Z,54.44
2023-05-06T18:52:08.675Z,54.85
2023-05-06T18:54:52.103Z,54.13
2023-05-06T18:58:04.976Z,53.76
2023-05-06T19:01:05.182Z,53.40
2023-05-06T19:04:00.615Z,53.44
2023-05-06T19:06:39.475Z,53.87
2023-05-06T19:10:02.939Z,53.81
2023-05-06T19:13:02.099Z,53.77
2023-05-06T19:16:07.529Z,53.56
2023-05-06T19:19:32.355Z,53.59
2023-05-06T19:23:15.963Z,53.45
2023-05-06T19:26:55.308Z,53.52
2023-05-06T19:34:10.033Z,54.10
2023-05-06T19:37:53.000Z,54.22
2023-05-06T19:41:32.190Z,54.13
2023-05-06T19:45:10.452Z,54.29
2023-05-06T19:48:50.279Z,54.80
2023-05-06T19:56:02.199Z,55.79
2023-05-06T20:02:59.189Z,58.25
2023-05-06T20:06:55.911Z,56.90
2023-05-06T20:13:49.447Z,57.32
2023-05-06T20:18:18.127Z,59.33
2023-05-06T20:26:30.688Z,59.07
2023-05-06T20:30:42.119Z,58.80
2023-05-06T20:34:10.574Z,59.38
2023-05-06T20:41:00.212Z,60.44
2023-05-06T20:44:56.872Z,60.30
2023-05-06T20:56:27.006Z,62.59
2023-05-06T21:00:00.766Z,62.14
2023-05-06T21:07:30.367Z,63.13
2023-05-06T21:11:22.911Z,63.46
2023-05-06T21:15:14.365Z,64.04
2023-05-06T21:23:10.809Z,64.95
2023-05-06T21:34:35.144Z,65.04
2023-05-06T21:38:09.292Z,65.22
2023-05-06T21:52:25.770Z,65.88
2023-05-06T21:56:22.537Z,65.98
2023-05-06T22:00:25.409Z,66.22
2023-05-06T22:08:12.645Z,66.54
2023-05-06T22:11:50.983Z,66.48
2023-05-06T22:15:23.985Z,67.11
2023-05-06T22:18:44.008Z,66.62
2023-05-06T22:25:14.331Z,66.60
2023-05-06T22:29:08.797Z,71.60
2023-05-06T22:32:56.142Z,70.73
2023-05-06T22:46:57.921Z,74.14
2023-05-06T23:00:36.000Z,73.15
2023-05-06T23:03:04.005Z,73.93
2023-05-06T23:05:31.910Z,73.47
2023-05-06T23:08:31.113Z,72.82
2023-05-06T23:12:11.199Z,71.65
2023-05-06T23:38:48.034Z,69.84
2023-05-06T23:49:06.574Z,69.08
2023-05-06T23:52:39.948Z,69.03
2023-05-06T23:56:39.298Z,69.54
